createdAt,value
2023-01-20T00:00:21.403Z,94858.34
2023-01-20T00:05:24.109Z,94862.88
2023-01-20T00:10:26.723Z,94870.66
2023-01-20T00:15:29.535Z,94862.88
2023-01-20T00:20:32.098Z,94871.13
2023-01-20T00:25:34.776Z,94876.53
2023-01-20T00:30:37.369Z,94878.44
2023-01-20T00:35:39.930Z,94874.31
2023-01-20T00:40:42.571Z,94885.69
2023-01-20T00:45:45.327Z,94879.16
2023-01-20T00:50:47.931Z,94880.31
2023-01-20T00:55:50.639Z,94890.75
2023-01-20T01:00:53.419Z,94891.31
2023-01-20T01:05:56.089Z,94889.72
2023-01-20T01:10:58.961Z,94895.72
2023-01-20T01:16:01.719Z,94898.59
2023-01-20T01:21:04.428Z,94903.84
2023-01-20T01:26:07.003Z,94903.06
2023-01-20T01:31:09.660Z,94906.25
2023-01-20T01:36:12.394Z,94916.66
2023-01-20T01:41:15.298Z,94920.75
2023-01-20T01:46:17.916Z,94914.34
2023-01-20T01:51:20.583Z,94921.97
2023-01-20T01:56:23.316Z,94918.16
2023-01-20T02:01:26.105Z,94920.19
2023-01-20T02:06:28.743Z,94920.66
2023-01-20T02:11:31.325Z,94925.19
2023-01-20T02:16:35.035Z,94926.50
2023-01-20T02:21:37.718Z,94927.22
2023-01-20T02:26:40.310Z,94930.94
2023-01-20T02:31:42.944Z,94930.00
2023-01-20T02:36:45.566Z,94934.91
2023-01-20T02:41:48.125Z,94931.66
2023-01-20T02:46:50.784Z,94940.69
2023-01-20T02:51:53.532Z,94942.84
2023-01-20T02:56:56.121Z,94946.56
2023-01-20T03:02:02.408Z,94944.22
2023-01-20T03:07:05.175Z,94955.97
2023-01-20T03:12:07.914Z,94959.75
2023-01-20T03:17:10.472Z,94954.06
2023-01-20T03:22:13.055Z,94960.47
2023-01-20T03:27:15.593Z,94962.84
2023-01-20T03:32:18.390Z,94966.94
2023-01-20T03:37:21.033Z,94967.38
2023-01-20T03:42:23.703Z,94979.66
2023-01-20T03:47:26.362Z,94985.56
2023-01-20T03:52:48.351Z,94989.50
2023-01-20T03:57:51.266Z,94995.81
2023-01-20T04:02:53.837Z,94992.28
2023-01-20T04:07:56.479Z,94997.34
2023-01-20T04:12:59.123Z,95003.72
2023-01-20T04:18:01.790Z,95007.09
2023-01-20T04:23:04.467Z,95020.72
2023-01-20T04:28:07.064Z,95018.50
2023-01-20T04:33:09.655Z,95027.75
2023-01-20T04:38:12.265Z,95030.69
2023-01-20T04:43:15.627Z,95049.44
2023-01-20T04:48:18.293Z,95054.53
2023-01-20T04:53:21.022Z,95052.88
2023-01-20T04:58:23.878Z,95052.94
2023-01-20T05:03:26.543Z,95060.75
2023-01-20T05:08:29.107Z,95071.34
2023-01-20T05:13:31.788Z,95075.81
2023-01-20T05:18:34.969Z,95077.06
2023-01-20T05:23:37.599Z,95097.78
2023-01-20T05:28:40.159Z,95096.91
2023-01-20T05:33:42.715Z,95097.72
2023-01-20T05:38:45.311Z,95099.03
2023-01-20T05:43:47.938Z,95107.53
2023-01-20T05:48:50.831Z,95112.78
2023-01-20T05:53:53.606Z,95116.56
2023-01-20T05:58:56.702Z,95125.19
2023-01-20T06:03:59.414Z,95137.91
2023-01-20T06:09:02.026Z,95142.44
2023-01-20T06:14:04.646Z,95137.34
2023-01-20T06:19:07.714Z,95139.25
2023-01-20T06:24:10.790Z,95146.56
2023-01-20T06:29:13.980Z,95151.81
2023-01-20T06:34:17.070Z,95165.19
2023-01-20T06:39:20.151Z,95163.16
2023-01-20T06:44:23.214Z,95170.44
2023-01-20T06:49:26.466Z,95186.00
2023-01-20T06:54:29.615Z,95188.66
2023-01-20T06:59:32.732Z,95192.50
2023-01-20T07:04:51.021Z,95202.78
2023-01-20T07:09:54.123Z,95203.56
2023-01-20T07:14:57.299Z,95213.31
2023-01-20T07:20:00.411Z,95219.56
2023-01-20T07:25:03.447Z,95218.34
2023-01-20T07:30:06.880Z,95224.38
2023-01-20T07:35:10.173Z,95233.50
2023-01-20T07:40:12.858Z,95246.84
2023-01-20T07:45:16.457Z,95255.72
2023-01-20T07:50:19.885Z,95262.72
2023-01-20T07:55:25.015Z,95265.63
2023-01-20T08:00:28.424Z,95266.75
2023-01-20T08:05:31.582Z,95265.44
2023-01-20T08:10:35.045Z,95267.09
2023-01-20T08:15:38.445Z,95267.22
2023-01-20T08:20:41.869Z,95276.69
2023-01-20T08:25:45.011Z,95288.00
2023-01-20T08:30:48.216Z,95287.63
2023-01-20T08:35:51.380Z,95285.44
2023-01-20T08:40:54.603Z,95295.53
2023-01-20T08:45:57.759Z,95298.06
2023-01-20T08:51:01.134Z,95308.16
2023-01-20T08:56:04.291Z,95315.84
2023-01-20T09:01:07.400Z,95325.94
2023-01-20T09:06:10.503Z,95326.13
2023-01-20T09:11:13.586Z,95335.69
2023-01-20T09:16:16.869Z,95340.13
2023-01-20T09:21:20.017Z,95344.38
2023-01-20T09:26:35.391Z,95343.66
2023-01-20T09:31:39.204Z,95358.47
2023-01-20T09:36:42.416Z,95361.28
2023-01-20T09:42:14.291Z,95360.28
2023-01-20T09:47:22.946Z,95365.13
2023-01-20T09:52:43.460Z,95374.81
2023-01-20T09:57:46.221Z,95378.34
2023-01-20T10:02:48.855Z,95369.75
2023-01-20T10:07:51.759Z,95373.50
2023-01-20T10:12:54.469Z,95373.31
2023-01-20T10:18:00.165Z,95375.81
2023-01-20T10:23:03.015Z,95375.75
2023-01-20T10:28:05.617Z,95373.50
2023-01-20T10:33:08.315Z,95389.50
2023-01-20T10:38:11.104Z,95377.75
2023-01-20T10:43:13.771Z,95377.91
2023-01-20T10:48:16.372Z,95380.69
2023-01-20T10:53:18.929Z,95382.56
2023-01-20T10:58:21.621Z,95381.25
2023-01-20T11:03:24.312Z,95385.97
2023-01-20T11:08:26.891Z,95381.78
2023-01-20T11:13:29.566Z,95377.16
2023-01-20T11:18:32.144Z,95388.81
2023-01-20T11:23:37.577Z,95383.09
2023-01-20T11:28:40.335Z,95383.53
2023-01-20T11:33:42.951Z,95380.59
2023-01-20T11:38:45.618Z,95388.16
2023-01-20T11:43:48.211Z,95389.09
2023-01-20T11:48:50.901Z,95383.75
2023-01-20T11:53:53.505Z,95386.53
2023-01-20T11:58:56.157Z,95386.00
2023-01-20T12:03:58.870Z,95380.53
2023-01-20T12:09:01.578Z,95383.78
2023-01-20T12:14:23.255Z,95384.69
2023-01-20T12:19:27.528Z,95387.16
2023-01-20T12:24:53.238Z,95388.09
2023-01-20T12:29:55.963Z,95397.22
2023-01-20T12:34:58.547Z,95398.03
2023-01-20T12:40:01.468Z,95399.97
2023-01-20T12:45:04.091Z,95410.22
2023-01-20T12:50:07.056Z,95410.00
2023-01-20T12:55:09.662Z,95416.47
2023-01-20T13:00:12.601Z,95415.81
2023-01-20T13:05:16.911Z,95416.41
2023-01-20T13:10:19.652Z,95422.50
2023-01-20T13:15:22.322Z,95411.84
2023-01-20T13:20:24.983Z,95425.16
2023-01-20T13:25:27.599Z,95425.63
2023-01-20T13:30:30.346Z,95430.34
2023-01-20T13:35:34.018Z,95433.41
2023-01-20T13:40:36.628Z,95451.44
2023-01-20T13:45:39.232Z,95451.44
2023-01-20T13:50:41.992Z,95454.25
2023-01-20T13:55:44.616Z,95454.66
2023-01-20T14:00:47.262Z,95461.31
2023-01-20T14:05:50.151Z,95467.41
2023-01-20T14:10:52.753Z,95467.25
2023-01-20T14:15:55.509Z,95470.16
2023-01-20T14:20:58.285Z,95475.25
2023-01-20T14:26:01.011Z,95480.31
2023-01-20T14:31:03.726Z,95485.28
2023-01-20T14:36:06.404Z,95500.28
2023-01-20T14:41:09.039Z,95500.22
2023-01-20T14:46:11.932Z,95503.38
2023-01-20T14:51:15.164Z,95510.22
2023-01-20T14:56:17.778Z,95517.38
2023-01-20T15:01:20.417Z,95528.19
2023-01-20T15:06:23.954Z,95529.25
2023-01-20T15:11:28.321Z,95528.69
2023-01-20T15:16:30.970Z,95532.91
2023-01-20T15:21:33.677Z,95540.28
2023-01-20T15:26:39.473Z,95541.66
2023-01-20T15:31:42.552Z,95551.81
2023-01-20T15:36:45.224Z,95552.72
2023-01-20T15:41:50.331Z,95555.41
2023-01-20T15:46:55.398Z,95559.06
2023-01-20T15:51:59.874Z,95562.28
2023-01-20T15:57:04.973Z,95562.09
2023-01-20T16:02:07.672Z,95572.63
2023-01-20T16:07:10.370Z,95574.91
2023-01-20T16:12:12.942Z,95586.47
2023-01-20T16:17:15.588Z,95588.09
2023-01-20T16:22:18.521Z,95586.88
2023-01-20T16:27:21.161Z,95594.78
2023-01-20T16:32:24.084Z,95586.84
2023-01-20T16:37:26.951Z,95596.19
2023-01-20T16:42:29.580Z,95601.47
2023-01-20T16:47:32.244Z,95601.47
2023-01-20T16:52:34.830Z,95611.88
2023-01-20T16:57:37.455Z,95617.53
2023-01-20T17:02:40.145Z,95617.53
2023-01-20T17:07:42.813Z,95626.25
2023-01-20T17:12:47.963Z,95636.00
2023-01-20T17:17:51.513Z,95638.63
2023-01-20T17:22:55.411Z,95639.47
2023-01-20T17:27:58.111Z,95645.75
2023-01-20T17:33:00.787Z,95650.84
2023-01-20T17:38:03.439Z,95650.03
2023-01-20T17:43:06.078Z,95655.50
2023-01-20T17:48:08.720Z,95667.25
2023-01-20T17:53:11.334Z,95672.53
2023-01-20T17:58:13.869Z,95681.88
2023-01-20T18:03:16.462Z,95678.66
2023-01-20T18:08:19.037Z,95683.50
2023-01-20T18:13:21.657Z,95681.25
2023-01-20T18:18:24.349Z,95696.50
2023-01-20T18:23:26.965Z,95691.22
2023-01-20T18:28:29.538Z,95699.72
2023-01-20T18:33:34.198Z,95704.59
2023-01-20T18:38:38.335Z,95702.34
2023-01-20T18:43:40.920Z,95711.06
2023-01-20T18:48:45.712Z,95698.91
2023-01-20T18:53:48.350Z,95709.06
2023-01-20T18:58:51.008Z,95708.84
2023-01-20T19:03:53.620Z,95709.88
2023-01-20T19:08:56.240Z,95711.47
2023-01-20T19:13:58.854Z,95709.66
2023-01-20T19:19:01.763Z,95714.28
2023-01-20T19:24:07.814Z,95712.47
2023-01-20T19:29:10.447Z,95712.44
2023-01-20T19:34:13.817Z,95722.56
2023-01-20T19:39:16.568Z,95728.03
2023-01-20T19:44:19.252Z,95727.63
2023-01-20T19:49:21.822Z,95734.31
2023-01-20T19:54:28.374Z,95744.44
2023-01-20T19:59:31.093Z,95739.16
2023-01-20T20:04:33.927Z,95743.84
2023-01-20T20:09:37.056Z,95749.31
2023-01-20T20:14:39.719Z,95752.34
2023-01-20T20:19:42.560Z,95750.47
2023-01-20T20:24:45.734Z,95753.72
2023-01-20T20:29:48.446Z,95754.94
2023-01-20T20:34:51.160Z,95761.41
2023-01-20T20:39:53.846Z,95770.28
2023-01-20T20:44:56.529Z,95761.22
2023-01-20T20:49:59.367Z,95764.00
2023-01-20T20:55:02.261Z,95767.88
2023-01-20T21:00:05.218Z,95778.59
2023-01-20T21:05:07.982Z,95772.09
2023-01-20T21:10:12.087Z,95773.34
2023-01-20T21:15:14.991Z,95776.97
2023-01-20T21:20:17.969Z,95785.09
2023-01-20T21:25:24.024Z,95778.53
2023-01-20T21:30:27.006Z,95780.16
2023-01-20T21:35:29.649Z,95778.72
2023-01-20T21:40:34.601Z,95776.69
2023-01-20T21:45:37.437Z,95784.19
2023-01-20T21:50:57.482Z,95786.59
2023-01-20T21:56:00.176Z,95787.81
2023-01-20T22:01:02.831Z,95796.81
2023-01-20T22:06:05.498Z,95792.78
2023-01-20T22:11:08.237Z,95805.13
2023-01-20T22:16:10.977Z,95797.81
2023-01-20T22:21:13.666Z,95798.84
2023-01-20T22:26:16.304Z,95803.50
2023-01-20T22:31:20.069Z,95804.06
2023-01-20T22:36:23.695Z,95812.34
2023-01-20T22:41:26.526Z,95811.94
2023-01-20T22:46:29.191Z,95806.25
2023-01-20T22:51:31.902Z,95811.16
2023-01-20T22:56:34.558Z,95817.00
2023-01-20T23:01:37.530Z,95813.31
2023-01-20T23:06:40.382Z,95812.94
2023-01-20T23:11:43.089Z,95820.19
2023-01-20T23:16:45.724Z,95818.53
2023-01-20T23:21:48.424Z,95823.69
2023-01-20T23:26:53.280Z,95826.72
2023-01-20T23:31:56.132Z,95813.75
2023-01-20T23:36:59.023Z,95807.63
2023-01-20T23:42:02.013Z,95809.25
2023-01-20T23:47:07.506Z,95817.34
2023-01-20T23:52:10.172Z,95817.63
2023-01-20T23:57:12.810Z,95826.41
